sensor_id;sensor_type;location;lat;lon;timestamp;temperature;humidity
74101;DHT22;62462;52.530;21.682;2023-05-07T00:00:29;10.00;62.40
74101;DHT22;62462;52.530;21.682;2023-05-07T00:02:55;10.00;62.40
74101;DHT22;62462;52.530;21.682;2023-05-07T00:05:21;10.00;62.50
74101;DHT22;62462;52.530;21.682;2023-05-07T00:07:47;9.90;62.70
74101;DHT22;62462;52.530;21.682;2023-05-07T00:10:13;9.90;62.80
74101;DHT22;62462;52.530;21.682;2023-05-07T00:12:39;10.00;62.80
74101;DHT22;62462;52.530;21.682;2023-05-07T00:15:06;10.00;62.70
74101;DHT22;62462;52.530;21.682;2023-05-07T00:17:33;10.00;62.80
74101;DHT22;62462;52.530;21.682;2023-05-07T00:19:58;10.10;62.80
74101;DHT22;62462;52.530;21.682;2023-05-07T00:22:24;10.10;63.20
74101;DHT22;62462;52.530;21.682;2023-05-07T00:24:50;10.10;62.90
74101;DHT22;62462;52.530;21.682;2023-05-07T00:27:16;10.10;63.10
74101;DHT22;62462;52.530;21.682;2023-05-07T00:29:41;10.10;63.00
74101;DHT22;62462;52.530;21.682;2023-05-07T00:32:08;10.00;64.00
74101;DHT22;62462;52.530;21.682;2023-05-07T00:34:33;9.90;64.20
74101;DHT22;62462;52.530;21.682;2023-05-07T00:36:59;9.90;63.90
74101;DHT22;62462;52.530;21.682;2023-05-07T00:39:25;10.00;64.10
74101;DHT22;62462;52.530;21.682;2023-05-07T00:41:50;9.90;64.90
74101;DHT22;62462;52.530;21.682;2023-05-07T00:44:16;9.90;64.50
74101;DHT22;62462;52.530;21.682;2023-05-07T00:46:43;9.90;64.70
74101;DHT22;62462;52.530;21.682;2023-05-07T00:49:10;9.90;65.40
74101;DHT22;62462;52.530;21.682;2023-05-07T00:51:37;9.90;64.90
74101;DHT22;62462;52.530;21.682;2023-05-07T00:54:03;9.90;65.70
74101;DHT22;62462;52.530;21.682;2023-05-07T00:56:29;9.80;66.00
74101;DHT22;62462;52.530;21.682;2023-05-07T00:58:55;9.80;66.80
74101;DHT22;62462;52.530;21.682;2023-05-07T01:01:20;9.70;66.40
74101;DHT22;62462;52.530;21.682;2023-05-07T01:03:46;9.70;66.30
74101;DHT22;62462;52.530;21.682;2023-05-07T01:06:13;9.60;66.50
74101;DHT22;62462;52.530;21.682;2023-05-07T01:08:42;9.60;66.80
74101;DHT22;62462;52.530;21.682;2023-05-07T01:11:08;9.60;66.70
74101;DHT22;62462;52.530;21.682;2023-05-07T01:13:36;9.50;67.10
74101;DHT22;62462;52.530;21.682;2023-05-07T01:16:03;9.60;67.20
74101;DHT22;62462;52.530;21.682;2023-05-07T01:18:29;9.50;67.60
74101;DHT22;62462;52.530;21.682;2023-05-07T01:20:58;9.50;67.20
74101;DHT22;62462;52.530;21.682;2023-05-07T01:23:25;9.50;67.70
74101;DHT22;62462;52.530;21.682;2023-05-07T01:25:53;9.50;67.50
74101;DHT22;62462;52.530;21.682;2023-05-07T01:28:19;9.50;67.70
74101;DHT22;62462;52.530;21.682;2023-05-07T01:30:49;9.40;68.10
74101;DHT22;62462;52.530;21.682;2023-05-07T01:33:20;9.40;68.20
74101;DHT22;62462;52.530;21.682;2023-05-07T01:35:50;9.30;68.80
74101;DHT22;62462;52.530;21.682;2023-05-07T01:38:18;9.30;68.90
74101;DHT22;62462;52.530;21.682;2023-05-07T01:40:44;9.30;69.30
74101;DHT22;62462;52.530;21.682;2023-05-07T01:43:10;9.10;69.40
74101;DHT22;62462;52.530;21.682;2023-05-07T01:45:36;9.10;70.00
74101;DHT22;62462;52.530;21.682;2023-05-07T01:48:03;9.10;70.00
74101;DHT22;62462;52.530;21.682;2023-05-07T01:50:30;9.10;69.90
74101;DHT22;62462;52.530;21.682;2023-05-07T01:52:57;9.10;69.90
74101;DHT22;62462;52.530;21.682;2023-05-07T01:55:22;9.00;69.60
74101;DHT22;62462;52.530;21.682;2023-05-07T01:57:49;9.10;69.80
74101;DHT22;62462;52.530;21.682;2023-05-07T02:00:15;9.10;69.70
74101;DHT22;62462;52.530;21.682;2023-05-07T02:02:41;9.10;69.40
74101;DHT22;62462;52.530;21.682;2023-05-07T02:05:07;9.10;69.40
74101;DHT22;62462;52.530;21.682;2023-05-07T02:07:33;9.10;69.10
74101;DHT22;62462;52.530;21.682;2023-05-07T02:09:58;9.00;69.50
74101;DHT22;62462;52.530;21.682;2023-05-07T02:12:24;9.00;69.40
74101;DHT22;62462;52.530;21.682;2023-05-07T02:14:50;9.00;69.30
74101;DHT22;62462;52.530;21.682;2023-05-07T02:17:16;9.00;69.60
74101;DHT22;62462;52.530;21.682;2023-05-07T02:19:42;9.00;69.50
74101;DHT22;62462;52.530;21.682;2023-05-07T02:22:09;9.00;69.60
74101;DHT22;62462;52.530;21.682;2023-05-07T02:24:35;9.00;70.00
74101;DHT22;62462;52.530;21.682;2023-05-07T02:27:01;9.00;69.80
74101;DHT22;62462;52.530;21.682;2023-05-07T02:29:27;9.00;69.50
74101;DHT22;62462;52.530;21.682;2023-05-07T02:31:53;9.00;69.60
74101;DHT22;62462;52.530;21.682;2023-05-07T02:34:19;9.00;70.40
74101;DHT22;62462;52.530;21.682;2023-05-07T02:36:45;9.00;69.60
74101;DHT22;62462;52.530;21.682;2023-05-07T02:39:12;9.00;69.40
74101;DHT22;62462;52.530;21.682;2023-05-07T02:41:37;9.00;69.80
74101;DHT22;62462;52.530;21.682;2023-05-07T02:44:04;9.00;69.80
74101;DHT22;62462;52.530;21.682;2023-05-07T02:46:29;9.00;69.60
74101;DHT22;62462;52.530;21.682;2023-05-07T02:48:55;9.00;69.80
74101;DHT22;62462;52.530;21.682;2023-05-07T02:51:22;9.00;69.80
74101;DHT22;62462;52.530;21.682;2023-05-07T02:53:48;9.00;69.70
74101;DHT22;62462;52.530;21.682;2023-05-07T02:56:14;9.00;69.70
74101;DHT22;62462;52.530;21.682;2023-05-07T02:58:40;9.00;69.80
74101;DHT22;62462;52.530;21.682;2023-05-07T03:01:07;9.10;69.70
74101;DHT22;62462;52.530;21.682;2023-05-07T03:03:34;9.00;70.30
74101;DHT22;62462;52.530;21.682;2023-05-07T03:06:00;9.10;69.90
74101;DHT22;62462;52.530;21.682;2023-05-07T03:08:26;9.10;69.70
74101;DHT22;62462;52.530;21.682;2023-05-07T03:10:51;9.10;69.90
74101;DHT22;62462;52.530;21.682;2023-05-07T03:13:17;9.10;69.80
74101;DHT22;62462;52.530;21.682;2023-05-07T03:15:43;9.10;70.00
74101;DHT22;62462;52.530;21.682;2023-05-07T03:18:09;9.20;69.80
74101;DHT22;62462;52.530;21.682;2023-05-07T03:20:35;9.20;70.00
74101;DHT22;62462;52.530;21.682;2023-05-07T03:23:01;9.20;70.00
74101;DHT22;62462;52.530;21.682;2023-05-07T03:25:27;9.20;69.80
74101;DHT22;62462;52.530;21.682;2023-05-07T03:27:53;9.20;69.60
74101;DHT22;62462;52.530;21.682;2023-05-07T03:30:19;9.20;70.10
74101;DHT22;62462;52.530;21.682;2023-05-07T03:32:45;9.20;70.00
74101;DHT22;62462;52.530;21.682;2023-05-07T03:35:11;9.10;70.10
74101;DHT22;62462;52.530;21.682;2023-05-07T03:37:38;9.20;70.20
74101;DHT22;62462;52.530;21.682;2023-05-07T03:40:04;9.20;70.00
74101;DHT22;62462;52.530;21.682;2023-05-07T03:42:30;9.30;70.00
74101;DHT22;62462;52.530;21.682;2023-05-07T03:44:55;9.30;69.80
74101;DHT22;62462;52.530;21.682;2023-05-07T03:47:21;9.30;69.70
74101;DHT22;62462;52.530;21.682;2023-05-07T03:49:47;9.30;69.90
74101;DHT22;62462;52.530;21.682;2023-05-07T03:52:14;9.30;70.00
74101;DHT22;62462;52.530;21.682;2023-05-07T03:54:40;9.30;70.10
74101;DHT22;62462;52.530;21.682;2023-05-07T03:57:06;9.30;70.40
74101;DHT22;62462;52.530;21.682;2023-05-07T03:59:31;9.30;70.20
74101;DHT22;62462;52.530;21.682;2023-05-07T04:01:58;9.40;70.20
74101;DHT22;62462;52.530;21.682;2023-05-07T04:04:24;9.40;70.20
74101;DHT22;62462;52.530;21.682;2023-05-07T04:06:49;9.40;70.30
74101;DHT22;62462;52.530;21.682;2023-05-07T04:09:15;9.40;70.50
74101;DHT22;62462;52.530;21.682;2023-05-07T04:11:42;9.40;70.80
74101;DHT22;62462;52.530;21.682;2023-05-07T04:14:08;9.50;70.70
74101;DHT22;62462;52.530;21.682;2023-05-07T04:16:34;9.50;70.30
74101;DHT22;62462;52.530;21.682;2023-05-07T04:19:00;9.50;70.60
74101;DHT22;62462;52.530;21.682;2023-05-07T04:21:26;9.50;70.40
74101;DHT22;62462;52.530;21.682;2023-05-07T04:23:52;9.50;70.80
74101;DHT22;62462;52.530;21.682;2023-05-07T04:26:18;9.50;70.80
74101;DHT22;62462;52.530;21.682;2023-05-07T04:28:43;9.50;70.70
74101;DHT22;62462;52.530;21.682;2023-05-07T04:31:09;9.50;70.90
74101;DHT22;62462;52.530;21.682;2023-05-07T04:33:35;9.60;71.10
74101;DHT22;62462;52.530;21.682;2023-05-07T04:36:02;9.50;71.20
74101;DHT22;62462;52.530;21.682;2023-05-07T04:38:31;9.40;71.60
74101;DHT22;62462;52.530;21.682;2023-05-07T04:41:08;9.40;71.40
74101;DHT22;62462;52.530;21.682;2023-05-07T04:43:34;9.40;71.40
74101;DHT22;62462;52.530;21.682;2023-05-07T04:46:00;9.40;71.50
74101;DHT22;62462;52.530;21.682;2023-05-07T04:48:26;9.40;71.60
74101;DHT22;62462;52.530;21.682;2023-05-07T04:50:52;9.50;71.40
74101;DHT22;62462;52.530;21.682;2023-05-07T04:53:18;9.40;71.00
74101;DHT22;62462;52.530;21.682;2023-05-07T04:55:44;9.50;71.30
74101;DHT22;62462;52.530;21.682;2023-05-07T04:58:11;9.50;71.40
74101;DHT22;62462;52.530;21.682;2023-05-07T05:00:37;9.50;71.30
74101;DHT22;62462;52.530;21.682;2023-05-07T05:03:05;9.50;71.30
74101;DHT22;62462;52.530;21.682;2023-05-07T05:05:31;9.50;71.20
74101;DHT22;62462;52.530;21.682;2023-05-07T05:07:57;9.50;70.90
74101;DHT22;62462;52.530;21.682;2023-05-07T05:10:24;9.50;70.80
74101;DHT22;62462;52.530;21.682;2023-05-07T05:12:50;9.50;71.20
74101;DHT22;62462;52.530;21.682;2023-05-07T05:15:15;9.60;71.00
74101;DHT22;62462;52.530;21.682;2023-05-07T05:17:41;9.60;70.90
74101;DHT22;62462;52.530;21.682;2023-05-07T05:20:07;9.70;70.60
74101;DHT22;62462;52.530;21.682;2023-05-07T05:22:35;9.70;70.60
74101;DHT22;62462;52.530;21.682;2023-05-07T05:25:00;9.80;70.20
74101;DHT22;62462;52.530;21.682;2023-05-07T05:27:26;9.80;70.40
74101;DHT22;62462;52.530;21.682;2023-05-07T05:29:52;9.80;70.60
74101;DHT22;62462;52.530;21.682;2023-05-07T05:32:18;9.80;70.40
74101;DHT22;62462;52.530;21.682;2023-05-07T05:34:43;9.80;69.90
74101;DHT22;62462;52.530;21.682;2023-05-07T05:37:09;9.90;70.00
74101;DHT22;62462;52.530;21.682;2023-05-07T05:39:36;9.90;69.80
74101;DHT22;62462;52.530;21.682;2023-05-07T05:42:02;10.00;69.50
74101;DHT22;62462;52.530;21.682;2023-05-07T05:44:28;10.00;69.30
74101;DHT22;62462;52.530;21.682;2023-05-07T05:46:53;10.00;69.00
74101;DHT22;62462;52.530;21.682;2023-05-07T05:49:24;10.00;69.00
74101;DHT22;62462;52.530;21.682;2023-05-07T05:51:50;10.00;68.80
74101;DHT22;62462;52.530;21.682;2023-05-07T05:54:16;10.00;68.80
74101;DHT22;62462;52.530;21.682;2023-05-07T05:56:43;10.00;69.10
74101;DHT22;62462;52.530;21.682;2023-05-07T05:59:08;10.10;68.80
74101;DHT22;62462;52.530;21.682;2023-05-07T06:01:34;10.10;68.50
74101;DHT22;62462;52.530;21.682;2023-05-07T06:04:00;10.20;67.90
74101;DHT22;62462;52.530;21.682;2023-05-07T06:06:26;10.20;68.40
74101;DHT22;62462;52.530;21.682;2023-05-07T06:08:51;10.30;68.20
74101;DHT22;62462;52.530;21.682;2023-05-07T06:11:17;10.30;68.00
74101;DHT22;62462;52.530;21.682;2023-05-07T06:13:43;10.30;67.60
74101;DHT22;62462;52.530;21.682;2023-05-07T06:16:09;10.30;67.60
74101;DHT22;62462;52.530;21.682;2023-05-07T06:18:34;10.30;67.50
74101;DHT22;62462;52.530;21.682;2023-05-07T06:21:01;10.30;67.20
74101;DHT22;62462;52.530;21.682;2023-05-07T06:23:27;10.30;67.30
74101;DHT22;62462;52.530;21.682;2023-05-07T06:25:53;10.30;67.30
74101;DHT22;62462;52.530;21.682;2023-05-07T06:28:19;10.40;66.90
74101;DHT22;62462;52.530;21.682;2023-05-07T06:30:44;10.40;66.60
74101;DHT22;62462;52.530;21.682;2023-05-07T06:33:10;10.50;66.40
74101;DHT22;62462;52.530;21.682;2023-05-07T06:35:36;10.50;65.50
74101;DHT22;62462;52.530;21.682;2023-05-07T06:38:01;10.50;65.50
74101;DHT22;62462;52.530;21.682;2023-05-07T06:40:27;10.60;65.40
74101;DHT22;62462;52.530;21.682;2023-05-07T06:42:53;10.60;64.70
74101;DHT22;62462;52.530;21.682;2023-05-07T06:45:19;10.70;65.20
74101;DHT22;62462;52.530;21.682;2023-05-07T06:47:45;10.70;65.10
74101;DHT22;62462;52.530;21.682;2023-05-07T06:50:11;10.70;64.70
74101;DHT22;62462;52.530;21.682;2023-05-07T06:52:37;10.70;64.70
74101;DHT22;62462;52.530;21.682;2023-05-07T06:55:03;10.70;64.20
74101;DHT22;62462;52.530;21.682;2023-05-07T06:57:29;10.70;64.10
74101;DHT22;62462;52.530;21.682;2023-05-07T06:59:54;10.80;63.80
74101;DHT22;62462;52.530;21.682;2023-05-07T07:02:20;10.80;63.40
74101;DHT22;62462;52.530;21.682;2023-05-07T07:04:46;10.80;63.20
74101;DHT22;62462;52.530;21.682;2023-05-07T07:07:12;10.80;63.20
74101;DHT22;62462;52.530;21.682;2023-05-07T07:09:37;10.90;63.30
74101;DHT22;62462;52.530;21.682;2023-05-07T07:12:03;10.90;62.50
74101;DHT22;62462;52.530;21.682;2023-05-07T07:14:29;11.00;62.30
74101;DHT22;62462;52.530;21.682;2023-05-07T07:16:55;11.10;62.30
74101;DHT22;62462;52.530;21.682;2023-05-07T07:19:20;11.30;61.00
74101;DHT22;62462;52.530;21.682;2023-05-07T07:21:46;11.30;61.20
74101;DHT22;62462;52.530;21.682;2023-05-07T07:24:13;11.30;61.00
74101;DHT22;62462;52.530;21.682;2023-05-07T07:26:44;11.40;61.00
74101;DHT22;62462;52.530;21.682;2023-05-07T07:29:10;11.40;61.60
74101;DHT22;62462;52.530;21.682;2023-05-07T07:31:37;11.50;59.90
74101;DHT22;62462;52.530;21.682;2023-05-07T07:34:02;11.60;59.00
74101;DHT22;62462;52.530;21.682;2023-05-07T07:36:28;11.70;59.30
74101;DHT22;62462;52.530;21.682;2023-05-07T07:38:54;11.90;60.70
74101;DHT22;62462;52.530;21.682;2023-05-07T07:41:20;12.10;60.40
74101;DHT22;62462;52.530;21.682;2023-05-07T07:43:46;12.20;58.80
74101;DHT22;62462;52.530;21.682;2023-05-07T07:46:12;12.20;57.40
74101;DHT22;62462;52.530;21.682;2023-05-07T07:48:38;12.10;57.30
74101;DHT22;62462;52.530;21.682;2023-05-07T07:51:04;12.10;56.90
74101;DHT22;62462;52.530;21.682;2023-05-07T07:53:30;12.00;56.30
74101;DHT22;62462;52.530;21.682;2023-05-07T07:55:56;12.00;55.40
74101;DHT22;62462;52.530;21.682;2023-05-07T07:58:21;12.10;57.60
74101;DHT22;62462;52.530;21.682;2023-05-07T08:00:48;12.20;56.30
74101;DHT22;62462;52.530;21.682;2023-05-07T08:03:14;12.20;55.50
74101;DHT22;62462;52.530;21.682;2023-05-07T08:05:42;12.20;55.80
74101;DHT22;62462;52.530;21.682;2023-05-07T08:08:08;12.40;56.10
74101;DHT22;62462;52.530;21.682;2023-05-07T08:10:33;12.40;55.20
74101;DHT22;62462;52.530;21.682;2023-05-07T08:13:00;12.30;54.40
74101;DHT22;62462;52.530;21.682;2023-05-07T08:15:26;12.40;55.20
74101;DHT22;62462;52.530;21.682;2023-05-07T08:17:52;12.50;55.90
74101;DHT22;62462;52.530;21.682;2023-05-07T08:20:18;12.60;54.30
74101;DHT22;62462;52.530;21.682;2023-05-07T08:22:43;12.60;55.10
74101;DHT22;62462;52.530;21.682;2023-05-07T08:25:09;12.90;55.20
74101;DHT22;62462;52.530;21.682;2023-05-07T08:27:35;13.10;54.00
74101;DHT22;62462;52.530;21.682;2023-05-07T08:30:01;13.30;54.30
74101;DHT22;62462;52.530;21.682;2023-05-07T08:32:27;13.40;54.30
74101;DHT22;62462;52.530;21.682;2023-05-07T08:34:53;13.60;53.20
74101;DHT22;62462;52.530;21.682;2023-05-07T08:37:18;13.60;52.00
74101;DHT22;62462;52.530;21.682;2023-05-07T08:39:44;13.40;51.50
74101;DHT22;62462;52.530;21.682;2023-05-07T08:42:12;13.20;51.30
74101;DHT22;62462;52.530;21.682;2023-05-07T08:44:45;12.90;51.10
74101;DHT22;62462;52.530;21.682;2023-05-07T08:47:12;12.80;52.50
74101;DHT22;62462;52.530;21.682;2023-05-07T08:49:38;13.10;53.70
74101;DHT22;62462;52.530;21.682;2023-05-07T08:52:04;13.40;51.70
74101;DHT22;62462;52.530;21.682;2023-05-07T08:54:31;13.70;49.60
74101;DHT22;62462;52.530;21.682;2023-05-07T08:56:57;13.90;50.10
74101;DHT22;62462;52.530;21.682;2023-05-07T08:59:23;14.10;48.40
74101;DHT22;62462;52.530;21.682;2023-05-07T09:01:49;14.10;49.00
74101;DHT22;62462;52.530;21.682;2023-05-07T09:04:14;14.00;49.60
74101;DHT22;62462;52.530;21.682;2023-05-07T09:06:40;14.10;50.60
74101;DHT22;62462;52.530;21.682;2023-05-07T09:09:07;14.20;49.80
74101;DHT22;62462;52.530;21.682;2023-05-07T09:11:33;14.30;49.30
74101;DHT22;62462;52.530;21.682;2023-05-07T09:13:59;14.50;48.40
74101;DHT22;62462;52.530;21.682;2023-05-07T09:16:27;14.80;46.80
74101;DHT22;62462;52.530;21.682;2023-05-07T09:18:54;14.80;45.30
74101;DHT22;62462;52.530;21.682;2023-05-07T09:21:21;14.70;45.40
74101;DHT22;62462;52.530;21.682;2023-05-07T09:23:52;14.40;46.30
74101;DHT22;62462;52.530;21.682;2023-05-07T09:26:19;14.20;48.10
74101;DHT22;62462;52.530;21.682;2023-05-07T09:28:46;14.10;49.40
74101;DHT22;62462;52.530;21.682;2023-05-07T09:31:12;14.40;50.00
74101;DHT22;62462;52.530;21.682;2023-05-07T09:33:38;14.70;47.80
74101;DHT22;62462;52.530;21.682;2023-05-07T09:36:06;14.90;48.60
74101;DHT22;62462;52.530;21.682;2023-05-07T09:38:33;15.20;47.90
74101;DHT22;62462;52.530;21.682;2023-05-07T09:41:09;15.50;47.50
74101;DHT22;62462;52.530;21.682;2023-05-07T09:43:36;15.50;47.20
74101;DHT22;62462;52.530;21.682;2023-05-07T09:46:12;15.60;44.20
74101;DHT22;62462;52.530;21.682;2023-05-07T09:48:41;15.50;43.80
74101;DHT22;62462;52.530;21.682;2023-05-07T09:51:30;15.50;43.90
74101;DHT22;62462;52.530;21.682;2023-05-07T09:53:58;15.40;43.60
74101;DHT22;62462;52.530;21.682;2023-05-07T09:56:27;15.50;45.00
74101;DHT22;62462;52.530;21.682;2023-05-07T09:58:56;15.20;42.70
74101;DHT22;62462;52.530;21.682;2023-05-07T10:01:25;14.90;43.40
74101;DHT22;62462;52.530;21.682;2023-05-07T10:03:51;14.80;43.20
74101;DHT22;62462;52.530;21.682;2023-05-07T10:06:20;14.80;44.90
74101;DHT22;62462;52.530;21.682;2023-05-07T10:08:46;14.80;44.60
74101;DHT22;62462;52.530;21.682;2023-05-07T10:11:12;14.80;43.50
74101;DHT22;62462;52.530;21.682;2023-05-07T10:13:40;14.70;43.80
74101;DHT22;62462;52.530;21.682;2023-05-07T10:16:06;14.50;43.60
74101;DHT22;62462;52.530;21.682;2023-05-07T10:18:33;14.50;44.70
74101;DHT22;62462;52.530;21.682;2023-05-07T10:21:20;14.50;46.20
74101;DHT22;62462;52.530;21.682;2023-05-07T10:23:57;14.40;45.30
74101;DHT22;62462;52.530;21.682;2023-05-07T10:26:27;14.30;45.90
74101;DHT22;62462;52.530;21.682;2023-05-07T10:29:03;14.20;46.00
74101;DHT22;62462;52.530;21.682;2023-05-07T10:31:49;14.10;46.40
74101;DHT22;62462;52.530;21.682;2023-05-07T10:34:22;14.00;46.00
74101;DHT22;62462;52.530;21.682;2023-05-07T10:36:49;14.00;46.60
74101;DHT22;62462;52.530;21.682;2023-05-07T10:39:16;14.00;45.50
74101;DHT22;62462;52.530;21.682;2023-05-07T10:41:42;14.00;46.00
74101;DHT22;62462;52.530;21.682;2023-05-07T10:44:08;14.10;46.80
74101;DHT22;62462;52.530;21.682;2023-05-07T10:46:34;14.10;47.90
74101;DHT22;62462;52.530;21.682;2023-05-07T10:51:27;14.20;48.60
74101;DHT22;62462;52.530;21.682;2023-05-07T10:56:41;14.50;47.30
74101;DHT22;62462;52.530;21.682;2023-05-07T11:02:00;14.50;46.20
74101;DHT22;62462;52.530;21.682;2023-05-07T11:04:31;14.50;46.40
74101;DHT22;62462;52.530;21.682;2023-05-07T11:15:05;15.10;45.30
74101;DHT22;62462;52.530;21.682;2023-05-07T11:17:31;15.40;45.10
74101;DHT22;62462;52.530;21.682;2023-05-07T11:20:03;15.70;43.70
74101;DHT22;62462;52.530;21.682;2023-05-07T11:25:08;16.40;41.60
74101;DHT22;62462;52.530;21.682;2023-05-07T11:27:34;16.70;43.70
74101;DHT22;62462;52.530;21.682;2023-05-07T11:30:00;16.70;40.40
74101;DHT22;62462;52.530;21.682;2023-05-07T11:32:31;16.40;40.30
74101;DHT22;62462;52.530;21.682;2023-05-07T11:34:58;16.10;40.10
74101;DHT22;62462;52.530;21.682;2023-05-07T11:37:25;15.90;42.30
74101;DHT22;62462;52.530;21.682;2023-05-07T11:40:05;15.70;41.80
74101;DHT22;62462;52.530;21.682;2023-05-07T11:42:36;15.60;42.70
74101;DHT22;62462;52.530;21.682;2023-05-07T11:45:06;15.50;42.70
74101;DHT22;62462;52.530;21.682;2023-05-07T11:47:33;15.50;43.30
74101;DHT22;62462;52.530;21.682;2023-05-07T11:50:07;15.60;42.90
74101;DHT22;62462;52.530;21.682;2023-05-07T11:52:33;15.60;44.10
74101;DHT22;62462;52.530;21.682;2023-05-07T11:55:00;15.70;43.80
74101;DHT22;62462;52.530;21.682;2023-05-07T11:57:27;15.80;44.90
74101;DHT22;62462;52.530;21.682;2023-05-07T11:59:58;16.20;43.60
74101;DHT22;62462;52.530;21.682;2023-05-07T12:02:25;16.50;44.50
74101;DHT22;62462;52.530;21.682;2023-05-07T12:04:52;16.90;41.80
74101;DHT22;62462;52.530;21.682;2023-05-07T12:07:18;16.90;39.10
74101;DHT22;62462;52.530;21.682;2023-05-07T12:09:45;16.70;41.10
74101;DHT22;62462;52.530;21.682;2023-05-07T12:12:11;16.80;40.70
74101;DHT22;62462;52.530;21.682;2023-05-07T12:14:42;16.50;39.00
74101;DHT22;62462;52.530;21.682;2023-05-07T12:17:09;16.40;39.00
74101;DHT22;62462;52.530;21.682;2023-05-07T12:19:36;16.30;39.60
74101;DHT22;62462;52.530;21.682;2023-05-07T12:22:05;16.40;41.10
74101;DHT22;62462;52.530;21.682;2023-05-07T12:24:46;16.50;39.50
74101;DHT22;62462;52.530;21.682;2023-05-07T12:27:12;16.80;39.70
74101;DHT22;62462;52.530;21.682;2023-05-07T12:29:38;16.90;37.60
74101;DHT22;62462;52.530;21.682;2023-05-07T12:32:06;16.90;37.70
74101;DHT22;62462;52.530;21.682;2023-05-07T12:34:32;17.00;38.60
74101;DHT22;62462;52.530;21.682;2023-05-07T12:37:01;16.80;36.80
74101;DHT22;62462;52.530;21.682;2023-05-07T12:39:28;16.60;37.40
74101;DHT22;62462;52.530;21.682;2023-05-07T12:41:55;16.30;37.50
74101;DHT22;62462;52.530;21.682;2023-05-07T12:44:29;16.40;39.10
74101;DHT22;62462;52.530;21.682;2023-05-07T12:46:55;16.60;40.80
74101;DHT22;62462;52.530;21.682;2023-05-07T12:49:21;16.80;39.30
74101;DHT22;62462;52.530;21.682;2023-05-07T12:51:47;16.60;38.50
74101;DHT22;62462;52.530;21.682;2023-05-07T12:54:27;16.50;39.50
74101;DHT22;62462;52.530;21.682;2023-05-07T12:57:07;16.60;40.30
74101;DHT22;62462;52.530;21.682;2023-05-07T13:01:58;16.90;39.30
74101;DHT22;62462;52.530;21.682;2023-05-07T13:04:25;17.20;39.40
74101;DHT22;62462;52.530;21.682;2023-05-07T13:06:51;17.40;37.90
74101;DHT22;62462;52.530;21.682;2023-05-07T13:09:16;17.50;38.40
74101;DHT22;62462;52.530;21.682;2023-05-07T13:11:42;17.70;37.60
74101;DHT22;62462;52.530;21.682;2023-05-07T13:14:08;17.80;33.60
74101;DHT22;62462;52.530;21.682;2023-05-07T13:16:33;17.60;34.10
74101;DHT22;62462;52.530;21.682;2023-05-07T13:18:59;17.50;34.60
74101;DHT22;62462;52.530;21.682;2023-05-07T13:21:25;17.60;34.50
74101;DHT22;62462;52.530;21.682;2023-05-07T13:23:52;17.60;34.70
74101;DHT22;62462;52.530;21.682;2023-05-07T13:26:18;17.30;33.60
74101;DHT22;62462;52.530;21.682;2023-05-07T13:28:44;17.20;36.50
74101;DHT22;62462;52.530;21.682;2023-05-07T13:31:10;17.40;35.60
74101;DHT22;62462;52.530;21.682;2023-05-07T13:33:35;17.80;36.70
74101;DHT22;62462;52.530;21.682;2023-05-07T13:36:02;18.00;36.00
74101;DHT22;62462;52.530;21.682;2023-05-07T13:38:30;17.90;35.10
74101;DHT22;62462;52.530;21.682;2023-05-07T13:40:55;17.90;35.60
74101;DHT22;62462;52.530;21.682;2023-05-07T13:43:21;17.80;34.80
74101;DHT22;62462;52.530;21.682;2023-05-07T13:45:47;17.60;35.50
74101;DHT22;62462;52.530;21.682;2023-05-07T13:48:13;17.40;36.10
74101;DHT22;62462;52.530;21.682;2023-05-07T13:50:38;17.50;38.20
74101;DHT22;62462;52.530;21.682;2023-05-07T13:53:04;17.70;38.50
74101;DHT22;62462;52.530;21.682;2023-05-07T13:55:30;18.00;37.80
74101;DHT22;62462;52.530;21.682;2023-05-07T13:57:57;18.40;35.70
74101;DHT22;62462;52.530;21.682;2023-05-07T14:00:24;18.70;37.00
74101;DHT22;62462;52.530;21.682;2023-05-07T14:02:50;19.00;35.00
74101;DHT22;62462;52.530;21.682;2023-05-07T14:05:16;19.00;35.10
74101;DHT22;62462;52.530;21.682;2023-05-07T14:07:41;18.80;34.50
74101;DHT22;62462;52.530;21.682;2023-05-07T14:10:07;18.50;34.10
74101;DHT22;62462;52.530;21.682;2023-05-07T14:12:33;18.20;34.90
74101;DHT22;62462;52.530;21.682;2023-05-07T14:15:00;18.30;34.90
74101;DHT22;62462;52.530;21.682;2023-05-07T14:17:25;18.30;35.90
74101;DHT22;62462;52.530;21.682;2023-05-07T14:19:53;18.60;36.50
74101;DHT22;62462;52.530;21.682;2023-05-07T14:22:22;18.90;36.90
74101;DHT22;62462;52.530;21.682;2023-05-07T14:24:48;18.70;34.40
74101;DHT22;62462;52.530;21.682;2023-05-07T14:27:16;18.20;35.10
74101;DHT22;62462;52.530;21.682;2023-05-07T14:29:41;17.80;35.70
74101;DHT22;62462;52.530;21.682;2023-05-07T14:32:08;17.50;35.70
74101;DHT22;62462;52.530;21.682;2023-05-07T14:34:34;17.40;36.10
74101;DHT22;62462;52.530;21.682;2023-05-07T14:37:00;17.50;36.70
74101;DHT22;62462;52.530;21.682;2023-05-07T14:39:27;17.60;36.10
74101;DHT22;62462;52.530;21.682;2023-05-07T14:41:53;17.60;36.50
74101;DHT22;62462;52.530;21.682;2023-05-07T14:44:20;17.50;36.90
74101;DHT22;62462;52.530;21.682;2023-05-07T14:46:46;17.30;37.40
74101;DHT22;62462;52.530;21.682;2023-05-07T14:49:13;17.10;36.90
74101;DHT22;62462;52.530;21.682;2023-05-07T14:51:43;16.80;36.60
74101;DHT22;62462;52.530;21.682;2023-05-07T14:54:10;16.80;38.40
74101;DHT22;62462;52.530;21.682;2023-05-07T14:56:35;17.10;38.40
74101;DHT22;62462;52.530;21.682;2023-05-07T14:59:02;17.40;37.00
74101;DHT22;62462;52.530;21.682;2023-05-07T15:01:28;17.50;37.20
74101;DHT22;62462;52.530;21.682;2023-05-07T15:03:54;17.70;37.30
74101;DHT22;62462;52.530;21.682;2023-05-07T15:06:21;18.00;37.20
74101;DHT22;62462;52.530;21.682;2023-05-07T15:08:47;18.10;35.30
74101;DHT22;62462;52.530;21.682;2023-05-07T15:11:14;18.30;35.00
74101;DHT22;62462;52.530;21.682;2023-05-07T15:13:42;18.40;35.50
74101;DHT22;62462;52.530;21.682;2023-05-07T15:16:07;18.50;34.70
74101;DHT22;62462;52.530;21.682;2023-05-07T15:18:33;18.30;35.10
74101;DHT22;62462;52.530;21.682;2023-05-07T15:20:59;18.00;34.00
74101;DHT22;62462;52.530;21.682;2023-05-07T15:23:25;17.80;35.60
74101;DHT22;62462;52.530;21.682;2023-05-07T15:25:52;17.60;36.60
74101;DHT22;62462;52.530;21.682;2023-05-07T15:28:17;17.50;36.40
74101;DHT22;62462;52.530;21.682;2023-05-07T15:30:43;17.50;37.00
74101;DHT22;62462;52.530;21.682;2023-05-07T15:33:09;17.40;36.60
74101;DHT22;62462;52.530;21.682;2023-05-07T15:35:35;17.30;36.40
74101;DHT22;62462;52.530;21.682;2023-05-07T15:38:00;17.00;36.20